Time;durP1;ratioP1;P1;durP2;ratioP2;P2;SDS_P1;SDS_P2;PMS_P1;PMS_P2;Temp;Humidity;BMP_temperature;BMP_pressure;BME280_temperature;BME280_humidity;BME280_pressure;Samples;Min_cycle;Max_cycle;Signal;HPM_P1;HPM_P2
2022/08/12 00:47:14;;;;;;;5.97;2.78;;;;;;;17.82;42.59;100187.06;10395050;28;20060;-57
2022/08/12 00:52:26;;;;;;;5.55;3.10;;;;;;;17.69;42.82;100182.94;10394464;28;20668;-57
2022/08/12 00:57:36;;;;;;;5.35;3.20;;;;;;;17.45;43.47;100185.84;10377061;28;20084;-58
2022/08/12 01:02:40;;;;;;;5.00;3.20;;;;;;;17.24;43.65;100184.16;10394771;28;20481;-57
2022/08/12 01:13:05;;;;;;;6.07;3.22;;;;;;;17.40;44.26;100179.28;10394012;28;20140;-58
2022/08/12 01:18:23;;;;;;;9.93;3.10;;;;;;;17.40;44.15;100177.50;10377747;28;20081;-57
2022/08/12 01:23:44;;;;;;;9.20;3.03;;;;;;;17.34;44.17;100183.28;10394075;28;20103;-58
2022/08/12 01:28:48;;;;;;;7.38;3.13;;;;;;;16.79;44.96;100188.78;10393022;28;20144;-57
2022/08/12 01:34:09;;;;;;;6.43;3.28;;;;;;;16.73;45.82;100191.91;10393436;28;20108;-57
2022/08/12 01:39:38;;;;;;;6.15;3.30;;;;;;;16.53;45.83;100192.69;10393541;28;20057;-58
2022/08/12 01:45:01;;;;;;;7.30;3.08;;;;;;;16.55;45.58;100188.13;10393111;28;20838;-58
2022/08/12 01:50:19;;;;;;;5.32;3.00;;;;;;;16.52;45.69;100197.13;10393471;28;20460;-58
2022/08/12 01:55:24;;;;;;;4.90;3.05;;;;;;;16.49;46.00;100199.97;10392583;28;20061;-57
2022/08/12 02:00:34;;;;;;;5.68;3.13;;;;;;;16.43;46.39;100195.19;10392554;28;20077;-58
2022/08/12 02:11:56;;;;;;;7.00;3.10;;;;;;;16.68;46.28;100191.44;10392424;28;20093;-58
2022/08/12 02:17:13;;;;;;;5.82;3.03;;;;;;;16.80;45.40;100199.22;10375050;28;20413;-58
2022/08/12 02:22:37;;;;;;;7.20;3.67;;;;;;;16.84;46.11;100197.16;10392132;28;20128;-57
2022/08/12 02:27:46;;;;;;;6.35;3.20;;;;;;;16.82;45.75;100197.28;10393676;28;20847;-58
2022/08/12 02:32:51;;;;;;;9.30;3.40;;;;;;;16.79;46.27;100199.34;10400341;28;20172;-57
2022/08/12 02:37:58;;;;;;;6.13;3.55;;;;;;;16.76;46.54;100194.28;10400537;28;20581;-58
2022/08/12 02:43:29;;;;;;;8.27;3.42;;;;;;;16.57;46.57;100197.56;10400046;28;20136;-58
2022/08/12 02:48:40;;;;;;;7.30;3.40;;;;;;;16.46;46.75;100188.84;10399877;28;20077;-57
2022/08/12 02:53:43;;;;;;;6.85;3.42;;;;;;;16.27;46.95;100199.13;10399844;28;20152;-57
2022/08/12 02:59:03;;;;;;;6.03;3.58;;;;;;;16.13;47.67;100197.59;10399272;28;20049;-57
2022/08/12 03:04:07;;;;;;;4.55;3.22;;;;;;;16.22;47.73;100189.78;10399258;28;20081;-57
2022/08/12 03:09:23;;;;;;;6.57;3.60;;;;;;;15.97;47.80;100192.69;10398876;28;20127;-57
2022/08/12 03:14:29;;;;;;;6.78;3.50;;;;;;;15.96;48.17;100196.25;10399362;28;20073;-57
2022/08/12 03:19:32;;;;;;;10.77;3.83;;;;;;;15.64;48.67;100184.72;10398754;28;20160;-57
2022/08/12 03:24:36;;;;;;;8.98;3.72;;;;;;;15.28;49.45;100198.03;10398306;28;20136;-57
2022/08/12 03:29:41;;;;;;;7.13;3.80;;;;;;;15.29;49.55;100210.22;10398400;28;20457;-57
2022/08/12 03:34:57;;;;;;;6.18;3.95;;;;;;;15.11;50.04;100206.34;10398301;28;20057;-57
2022/08/12 03:39:59;;;;;;;7.13;3.92;;;;;;;15.13;50.39;100207.06;10397266;28;20080;-57
2022/08/12 04:01:14;;;;;;;11.90;4.30;;;;;;;14.92;50.69;100227.91;10396826;28;20169;-57
2022/08/12 04:06:17;;;;;;;11.52;4.00;;;;;;;15.00;50.39;100220.28;10397110;28;20302;-57
2022/08/12 04:17:07;;;;;;;13.18;4.00;;;;;;;15.28;49.76;100213.84;10395347;28;20053;-57
2022/08/12 04:22:11;;;;;;;5.80;3.60;;;;;;;15.48;49.45;100214.97;10396984;28;20078;-57
2022/08/12 04:27:13;;;;;;;6.72;4.18;;;;;;;15.64;49.40;100212.88;10396708;28;20060;-57
2022/08/12 04:32:14;;;;;;;7.00;3.38;;;;;;;15.69;49.02;100216.88;10393999;28;20564;-57
2022/08/12 04:37:22;;;;;;;6.40;3.88;;;;;;;15.78;49.12;100218.78;10395905;28;20128;-57
2022/08/12 04:42:25;;;;;;;5.32;3.80;;;;;;;15.84;49.21;100234.13;10395517;28;20078;-57
2022/08/12 04:47:27;;;;;;;8.02;4.03;;;;;;;15.92;49.19;100237.03;10395429;28;20077;-57
2022/08/12 04:52:29;;;;;;;6.63;3.60;;;;;;;17.70;46.36;100222.50;10395121;28;20167;-58
2022/08/12 04:57:36;;;;;;;7.68;3.67;;;;;;;20.11;41.52;100220.97;10395162;28;20112;-58
2022/08/12 05:02:38;;;;;;;7.85;3.33;;;;;;;22.23;37.34;100221.88;10394836;28;20076;-58
2022/08/12 05:07:40;;;;;;;6.82;3.08;;;;;;;23.26;35.48;100219.72;10394774;28;20576;-58
2022/08/12 05:12:58;;;;;;;10.43;3.22;;;;;;;24.53;32.73;100213.50;10393035;28;20049;-58
2022/08/12 05:18:00;;;;;;;5.15;2.92;;;;;;;23.78;33.05;100222.91;10394278;28;20140;-58
2022/08/12 05:23:21;;;;;;;6.45;3.10;;;;;;;22.20;35.35;100232.03;10394054;28;20466;-58
2022/08/12 05:28:25;;;;;;;6.68;3.00;;;;;;;20.88;37.64;100237.41;10393828;28;20117;-58
2022/08/12 05:33:36;;;;;;;7.25;3.47;;;;;;;19.91;39.00;100232.63;10393693;28;20140;-58
2022/08/12 05:38:57;;;;;;;8.50;3.10;;;;;;;19.52;40.27;100249.59;10393512;28;20081;-57
2022/08/12 05:44:03;;;;;;;6.30;3.03;;;;;;;19.16;40.85;100253.75;10392970;28;20789;-58
2022/08/12 05:49:05;;;;;;;6.50;3.25;;;;;;;18.95;41.59;100252.16;10393071;28;20456;-57
2022/08/12 05:54:09;;;;;;;5.78;3.20;;;;;;;18.98;41.84;100252.72;10392345;28;20150;-58
2022/08/12 05:59:11;;;;;;;5.85;2.90;;;;;;;19.00;41.53;100245.47;10393015;28;20543;-58
2022/08/12 06:04:13;;;;;;;6.38;3.15;;;;;;;19.05;41.72;100256.53;10392181;28;20152;-58
2022/08/12 06:09:15;;;;;;;5.07;3.10;;;;;;;19.09;41.74;100252.63;10392747;28;20128;-58
2022/08/12 06:14:16;;;;;;;6.32;3.00;;;;;;;19.16;41.77;100259.06;10391841;28;20140;-58
2022/08/12 06:19:18;;;;;;;8.30;3.00;;;;;;;19.23;41.53;100257.53;10393053;28;20132;-58
2022/08/12 06:24:23;;;;;;;7.25;3.00;;;;;;;19.36;41.01;100247.47;10392358;28;20082;-58
2022/08/12 06:29:24;;;;;;;5.80;2.78;;;;;;;19.51;40.90;100253.19;10391197;28;20081;-58
2022/08/12 06:34:46;;;;;;;9.63;3.40;;;;;;;19.53;39.34;100240.63;10392486;28;20064;-57
2022/08/12 06:40:09;;;;;;;10.70;3.65;;;;;;;19.64;39.02;100242.28;10392639;28;20068;-57
2022/08/12 06:45:10;;;;;;;8.00;3.13;;;;;;;19.80;39.57;100235.44;10392001;28;20080;-57
2022/08/12 06:50:17;;;;;;;13.63;3.30;;;;;;;19.96;38.79;100241.00;10391706;28;20053;-58
2022/08/12 06:55:24;;;;;;;11.30;3.20;;;;;;;20.09;38.20;100238.03;10391402;28;20438;-58
2022/08/12 07:00:29;;;;;;;13.55;3.10;;;;;;;20.21;37.88;100239.53;10391540;28;20134;-58
2022/08/12 07:05:33;;;;;;;10.18;3.30;;;;;;;20.39;37.18;100235.13;10391263;28;20045;-58
2022/08/12 07:10:40;;;;;;;6.20;2.95;;;;;;;20.56;36.57;100236.16;10391520;28;20107;-58
2022/08/12 07:15:42;;;;;;;10.05;3.10;;;;;;;20.53;36.88;100231.97;10394074;28;20077;-57
2022/08/12 07:20:48;;;;;;;11.15;3.55;;;;;;;20.63;36.80;100231.94;10399040;28;20041;-57
2022/08/12 07:25:53;;;;;;;8.75;3.38;;;;;;;20.90;36.83;100232.78;10398738;28;20068;-58
2022/08/12 07:30:59;;;;;;;8.07;3.15;;;;;;;21.25;36.22;100231.97;10398410;28;20107;-57
2022/08/12 07:36:01;;;;;;;7.72;2.90;;;;;;;21.38;35.67;100228.91;10398182;28;20140;-58
2022/08/12 07:41:28;;;;;;;10.90;3.40;;;;;;;22.16;35.09;100236.00;10398152;28;20497;-58
2022/08/12 07:46:42;;;;;;;11.35;2.85;;;;;;;23.93;31.91;100223.03;10398043;28;20049;-58
2022/08/12 07:51:44;;;;;;;7.57;2.78;;;;;;;25.02;30.80;100219.47;10397575;28;20596;-58
2022/08/12 07:56:45;;;;;;;9.57;2.60;;;;;;;26.23;29.00;100215.75;10397817;28;20136;-58
2022/08/12 08:01:48;;;;;;;6.93;2.67;;;;;;;27.00;27.67;100212.41;10397196;28;20363;-58
2022/08/12 08:06:50;;;;;;;10.15;2.63;;;;;;;27.41;26.69;100199.19;10397021;28;20053;-58
2022/08/12 08:17:20;;;;;;;8.15;2.58;;;;;;;28.09;25.40;100196.63;10396347;28;20049;-58
2022/08/12 08:22:22;;;;;;;6.22;2.25;;;;;;;28.52;24.56;100183.00;10396530;28;20128;-58
2022/08/12 08:27:44;;;;;;;6.43;2.38;;;;;;;29.25;24.11;100176.78;10395733;28;20057;-58
2022/08/12 08:32:47;;;;;;;6.18;2.00;;;;;;;29.07;23.41;100174.69;10395847;28;20085;-58
2022/08/12 08:37:50;;;;;;;4.55;1.88;;;;;;;29.24;23.25;100164.31;10394834;28;20137;-58
2022/08/12 08:42:52;;;;;;;4.57;2.08;;;;;;;29.73;22.50;100175.53;10395876;28;20049;-58
2022/08/12 08:47:54;;;;;;;6.65;2.00;;;;;;;30.16;21.86;100165.09;10395583;28;20124;-58
2022/08/12 08:53:00;;;;;;;3.15;1.73;;;;;;;30.13;20.87;100160.16;10394405;28;20262;-58
2022/08/12 08:58:02;;;;;;;4.95;1.63;;;;;;;30.38;20.40;100161.06;10394890;28;20148;-58
2022/08/12 09:03:05;;;;;;;3.05;1.70;;;;;;;30.51;20.03;100159.19;10395098;28;20107;-58
2022/08/12 09:08:27;;;;;;;5.30;1.80;;;;;;;30.62;19.50;100149.56;10395672;28;20057;-59
2022/08/12 09:13:36;;;;;;;6.30;1.80;;;;;;;30.49;19.68;100158.56;10392821;28;20115;-59
2022/08/12 09:18:58;;;;;;;2.30;1.63;;;;;;;30.60;18.94;100147.09;10394300;28;20421;-59
2022/08/12 09:24:01;;;;;;;4.78;1.80;;;;;;;30.64;18.81;100147.50;10394326;28;20052;-59
2022/08/12 09:29:07;;;;;;;4.65;1.90;;;;;;;30.40;19.08;100143.63;10394086;28;20049;-58
2022/08/12 09:34:14;;;;;;;3.42;1.60;;;;;;;30.73;18.61;100132.69;10393267;28;20103;-58
2022/08/12 09:39:33;;;;;;;6.35;1.90;;;;;;;30.34;18.83;100141.78;10393061;28;20452;-58
2022/08/12 09:50:23;;;;;;;7.57;1.83;;;;;;;30.55;18.97;100144.22;10392984;28;20119;-58
2022/08/12 09:55:25;;;;;;;5.00;1.60;;;;;;;30.50;18.99;100127.00;10393446;28;20084;-58
2022/08/12 10:00:48;;;;;;;3.47;1.67;;;;;;;30.56;18.48;100124.25;10392575;28;20061;-58
2022/08/12 10:05:55;;;;;;;4.22;1.70;;;;;;;29.90;19.01;100112.03;10393311;28;20057;-58
2022/08/12 10:16:56;;;;;;;9.70;1.95;;;;;;;29.98;18.60;100108.31;10392424;28;20050;-58
2022/08/12 10:21:59;;;;;;;6.57;1.70;;;;;;;30.12;18.30;100097.25;10392371;28;20046;-58
2022/08/12 10:32:23;;;;;;;4.05;1.80;;;;;;;30.22;18.79;100084.13;10391632;28;20054;-58
2022/08/12 10:37:45;;;;;;;6.65;1.73;;;;;;;30.21;18.31;100085.19;10392791;28;20057;-58
2022/08/12 10:48:28;;;;;;;4.88;1.50;;;;;;;30.20;18.36;100067.34;10392603;28;20046;-58
2022/08/12 10:53:35;;;;;;;3.85;1.60;;;;;;;29.90;18.80;100058.13;10399301;28;20067;-58
2022/08/12 10:58:47;;;;;;;4.75;1.88;;;;;;;29.39;19.61;100063.44;10398558;28;20128;-58
2022/08/12 11:03:49;;;;;;;6.72;1.80;;;;;;;29.14;19.94;100043.53;10398653;28;21163;-58
2022/08/12 11:09:11;;;;;;;6.40;1.95;;;;;;;29.25;20.10;100042.06;10400125;28;20060;-58
2022/08/12 11:14:18;;;;;;;6.90;2.25;;;;;;;29.48;19.52;100035.22;10399217;28;20307;-58
2022/08/12 11:19:42;;;;;;;4.38;1.70;;;;;;;29.35;19.42;100048.69;10384082;28;20412;-58
2022/08/12 11:24:44;;;;;;;3.47;1.70;;;;;;;29.07;19.82;100040.84;10398775;28;20056;-58
2022/08/12 11:29:52;;;;;;;7.20;1.90;;;;;;;29.32;19.77;100021.31;10398381;28;20136;-58
2022/08/12 11:35:08;;;;;;;5.57;1.80;;;;;;;29.54;19.54;100023.59;10398590;28;20069;-58
2022/08/12 11:40:12;;;;;;;4.45;1.83;;;;;;;29.55;19.36;100002.84;10398115;28;20156;-58
2022/08/12 11:45:14;;;;;;;2.83;1.65;;;;;;;29.72;19.41;99998.66;10397201;28;20089;-58
2022/08/12 11:50:21;;;;;;;4.55;1.70;;;;;;;29.32;19.89;99991.69;10397243;28;20092;-58
2022/08/12 11:55:32;;;;;;;8.15;2.00;;;;;;;29.42;19.60;100000.22;10396865;28;20061;-58
2022/08/12 12:00:34;;;;;;;2.88;1.55;;;;;;;29.54;18.25;99996.63;10397076;28;20077;-58
2022/08/12 12:05:56;;;;;;;4.05;1.58;;;;;;;29.87;18.43;99983.03;10396094;28;20485;-58
2022/08/12 12:11:01;;;;;;;4.70;1.63;;;;;;;29.71;18.37;99984.34;10397980;28;20366;-58
2022/08/12 12:16:09;;;;;;;;;;;;;;;28.97;17.37;99977.69;10397250;28;20413;-59
2022/08/12 12:21:11;;;;;;;4.18;1.70;;;;;;;29.45;17.95;99965.59;10397195;28;20012;-58
2022/08/12 12:26:13;;;;;;;9.85;1.80;;;;;;;29.56;17.75;99973.00;10395148;28;20049;-58
2022/08/12 12:31:34;;;;;;;7.22;1.90;;;;;;;29.93;17.37;99973.28;10395904;28;20350;-58
2022/08/12 12:36:56;;;;;;;4.75;1.80;;;;;;;30.12;16.75;99951.59;10396562;28;20783;-58
2022/08/12 12:42:01;;;;;;;3.65;1.60;;;;;;;30.07;16.74;99945.22;10395756;28;20049;-58
2022/08/12 12:47:23;;;;;;;9.20;1.70;;;;;;;30.14;16.89;99946.81;10396063;28;20169;-58
2022/08/12 12:52:30;;;;;;;5.47;1.60;;;;;;;30.32;16.56;99949.59;10394226;28;20052;-59
2022/08/12 12:57:38;;;;;;;9.98;1.65;;;;;;;30.16;16.58;99933.94;10394485;28;20081;-58
2022/08/12 13:02:59;;;;;;;3.92;1.65;;;;;;;29.88;16.86;99938.84;10393866;28;20049;-58
2022/08/12 13:08:23;;;;;;;18.70;2.30;;;;;;;29.82;16.79;99928.94;10394807;28;20332;-58
2022/08/12 13:13:35;;;;;;;5.70;1.50;;;;;;;30.03;16.81;99919.72;10393411;28;20207;-58
2022/08/12 13:18:57;;;;;;;2.85;1.50;;;;;;;30.28;16.68;99918.69;10395127;28;20052;-58
2022/08/12 13:24:02;;;;;;;10.07;1.70;;;;;;;30.43;16.58;99915.66;10394349;28;20077;-58
2022/08/12 13:29:11;;;;;;;4.90;1.50;;;;;;;30.50;16.78;99909.19;10394192;28;20060;-58
2022/08/12 13:34:16;;;;;;;3.80;1.50;;;;;;;30.19;17.21;99921.88;10393908;28;20060;-58
2022/08/12 13:39:37;;;;;;;4.45;1.70;;;;;;;30.23;16.97;99912.31;10393463;28;20084;-58
2022/08/12 13:44:39;;;;;;;4.20;1.65;;;;;;;30.24;17.25;99898.59;10393844;28;20047;-58
2022/08/12 13:49:40;;;;;;;10.25;1.80;;;;;;;30.57;17.12;99892.94;10392795;28;20147;-58
2022/08/12 13:54:56;;;;;;;7.15;1.55;;;;;;;30.47;17.14;99901.56;10391698;28;20062;-58
2022/08/12 13:59:58;;;;;;;3.72;1.83;;;;;;;30.26;16.94;99891.09;10393009;28;20053;-58
2022/08/12 14:05:02;;;;;;;4.65;1.60;;;;;;;30.26;17.43;99885.69;10392875;28;20045;-58
2022/08/12 14:10:37;;;;;;;4.07;1.50;;;;;;;30.31;17.43;99888.56;10392595;28;20132;-58
2022/08/12 14:15:54;;;;;;;6.35;2.00;;;;;;;30.22;17.45;99897.16;10392938;28;20060;-58
2022/08/12 14:21:03;;;;;;;4.30;1.70;;;;;;;30.09;17.43;99887.28;10392725;28;20081;-58
2022/08/12 14:26:07;;;;;;;3.13;1.60;;;;;;;29.84;17.36;99886.41;10396212;28;20046;-58
2022/08/12 14:31:14;;;;;;;3.92;1.70;;;;;;;30.30;17.10;99881.50;10400810;28;20613;-58
2022/08/12 14:36:22;;;;;;;6.20;1.70;;;;;;;30.32;17.61;99868.63;10400674;28;20056;-58
2022/08/12 14:41:25;;;;;;;3.10;1.60;;;;;;;30.60;17.35;99866.31;10400351;28;20111;-58
2022/08/12 14:46:38;;;;;;;3.30;1.70;;;;;;;30.81;17.25;99872.34;10400362;28;20041;-58
2022/08/12 14:51:40;;;;;;;4.78;1.60;;;;;;;30.55;16.97;99874.28;10398748;28;20080;-59
2022/08/12 14:57:05;;;;;;;6.70;1.90;;;;;;;30.00;17.63;99885.91;10398256;28;20305;-58
2022/08/12 15:02:28;;;;;;;4.63;1.80;;;;;;;30.20;17.77;99862.31;10399982;28;20052;-58
2022/08/12 15:07:30;;;;;;;2.83;1.70;;;;;;;30.59;17.28;99867.38;10398503;28;20054;-58
2022/08/12 15:12:51;;;;;;;7.43;1.80;;;;;;;30.49;17.46;99856.28;10398897;28;20552;-58
2022/08/12 15:18:00;;;;;;;6.68;1.65;;;;;;;30.76;17.29;99854.13;10397944;28;20056;-58
2022/08/12 15:23:04;;;;;;;6.95;1.50;;;;;;;30.64;17.31;99850.53;10398995;28;20413;-58
2022/08/12 15:28:23;;;;;;;5.32;1.55;;;;;;;30.68;17.32;99840.94;10398615;28;20447;-58
2022/08/12 15:33:28;;;;;;;3.88;1.65;;;;;;;30.54;17.50;99837.53;10398740;28;20315;-58
2022/08/12 15:38:46;;;;;;;6.13;1.70;;;;;;;30.40;17.40;99851.31;10396091;28;20053;-58
2022/08/12 15:43:49;;;;;;;3.17;1.60;;;;;;;30.51;17.41;99851.47;10398129;28;20049;-58
2022/08/12 15:49:11;;;;;;;3.67;1.50;;;;;;;30.57;17.09;99849.75;10397900;28;20079;-58
2022/08/12 15:54:18;;;;;;;4.03;1.50;;;;;;;30.59;17.26;99831.47;10397447;28;20057;-58
2022/08/12 15:59:37;;;;;;;;;;;;;;;30.22;17.66;99835.94;10398050;28;20467;-58
2022/08/12 16:04:58;;;;;;;7.20;1.60;;;;;;;30.57;17.21;99841.66;10397975;28;19935;-58
2022/08/12 16:10:01;;;;;;;5.90;1.50;;;;;;;30.39;17.37;99838.91;10397190;28;20490;-58
2022/08/12 16:15:09;;;;;;;5.05;1.50;;;;;;;30.47;17.08;99839.47;10396613;28;20417;-58
2022/08/12 16:20:22;;;;;;;18.90;2.17;;;;;;;30.29;17.15;99831.31;10396703;28;20489;-58
2022/08/12 16:25:34;;;;;;;2.30;1.38;;;;;;;30.24;16.96;99833.84;10396507;28;20048;-58
2022/08/12 16:30:56;;;;;;;2.05;1.40;;;;;;;30.32;17.27;99828.16;10395889;28;20053;-58
2022/08/12 16:35:57;;;;;;;5.40;1.60;;;;;;;30.20;17.34;99821.84;10396122;28;20143;-58
2022/08/12 16:41:00;;;;;;;2.45;1.45;;;;;;;30.26;17.50;99814.72;10394134;28;20456;-58
2022/08/12 16:46:06;;;;;;;4.55;1.42;;;;;;;30.24;17.54;99817.66;10395588;28;20123;-58
2022/08/12 16:51:27;;;;;;;3.33;1.30;;;;;;;30.23;17.14;99805.22;10395892;28;20064;-58
2022/08/12 16:56:37;;;;;;;3.55;1.45;;;;;;;30.18;17.27;99810.44;10378279;28;20131;-58
2022/08/12 17:01:51;;;;;;;3.70;1.30;;;;;;;29.88;17.48;99801.31;10394709;28;20449;-58
2022/08/12 17:06:54;;;;;;;4.70;1.50;;;;;;;29.77;17.88;99805.56;10393905;28;20084;-58
2022/08/12 17:11:56;;;;;;;5.55;1.88;;;;;;;29.55;18.41;99819.59;10394149;28;20564;-59
2022/08/12 17:16:57;;;;;;;13.32;1.80;;;;;;;29.59;18.64;99807.34;10394444;28;20104;-58
2022/08/12 17:22:04;;;;;;;4.50;1.70;;;;;;;29.58;18.43;99811.09;10393199;28;20141;-58
2022/08/12 17:27:06;;;;;;;2.63;1.33;;;;;;;29.30;18.88;99814.09;10394007;28;20084;-60
2022/08/12 17:32:19;;;;;;;7.55;1.35;;;;;;;29.08;19.12;99800.13;10393951;28;20073;-60
2022/08/12 17:37:28;;;;;;;5.68;1.50;;;;;;;28.99;19.25;99812.16;10393922;28;20049;-60
2022/08/12 17:42:34;;;;;;;4.70;1.40;;;;;;;29.06;19.03;99812.97;10393395;28;20103;-58
2022/08/12 17:47:36;;;;;;;3.75;1.20;;;;;;;29.33;18.64;99811.00;10393512;28;20045;-57
2022/08/12 17:52:40;;;;;;;3.95;1.60;;;;;;;29.36;18.87;99813.25;10393516;28;20057;-58
2022/08/12 17:57:42;;;;;;;2.70;1.50;;;;;;;29.26;18.75;99817.44;10392750;28;20144;-58
2022/08/12 18:02:47;;;;;;;3.53;1.40;;;;;;;29.17;18.83;99821.44;10391444;28;20056;-58
2022/08/12 18:07:53;;;;;;;5.78;1.30;;;;;;;28.90;18.76;99837.69;10392885;28;20095;-57
2022/08/12 18:13:00;;;;;;;3.05;1.20;;;;;;;28.66;18.70;99835.66;10392195;28;20057;-58
2022/08/12 18:18:02;;;;;;;9.65;1.30;;;;;;;28.38;19.37;99840.44;10392979;28;20045;-58
2022/08/12 18:23:05;;;;;;;2.33;1.20;;;;;;;28.14;19.40;99851.81;10392628;28;20143;-58
2022/08/12 18:28:08;;;;;;;5.40;1.20;;;;;;;27.92;19.86;99858.41;10392188;28;20061;-58
2022/08/12 18:33:22;;;;;;;3.95;1.40;;;;;;;27.62;20.33;99860.59;10392187;28;20497;-58
2022/08/12 18:38:26;;;;;;;4.88;1.33;;;;;;;27.42;20.39;99857.03;10392314;28;20049;-57
2022/08/12 18:43:29;;;;;;;4.03;1.20;;;;;;;27.20;20.68;99872.44;10390701;28;20045;-57
2022/08/12 18:48:42;;;;;;;;;;;;;;;26.52;21.56;99870.53;10392818;28;20063;-58
2022/08/12 18:53:44;;;;;;;3.38;1.27;;;;;;;26.64;21.59;99871.69;10392017;28;20376;-57
2022/08/12 18:59:09;;;;;;;12.38;1.27;;;;;;;26.49;22.16;99875.44;10392374;28;20041;-57
2022/08/12 19:04:12;;;;;;;3.95;1.23;;;;;;;26.26;22.15;99877.56;10391796;28;20083;-57
2022/08/12 19:09:14;;;;;;;6.45;1.30;;;;;;;26.17;22.52;99890.25;10391983;28;20524;-57
2022/08/12 19:14:24;;;;;;;3.53;1.17;;;;;;;25.89;22.61;99887.47;10397882;28;20110;-57
2022/08/12 19:19:29;;;;;;;2.60;1.40;;;;;;;25.65;23.54;99887.03;10399236;28;20053;-58
2022/08/12 19:30:06;;;;;;;2.88;1.30;;;;;;;25.30;23.99;99890.47;10398426;28;20408;-58
2022/08/12 19:35:10;;;;;;;7.43;1.40;;;;;;;25.07;24.69;99896.78;10398585;28;20088;-58
2022/08/12 19:40:34;;;;;;;6.95;1.40;;;;;;;24.91;24.78;99898.81;10398444;28;20049;-57
2022/08/12 19:45:40;;;;;;;4.25;1.45;;;;;;;24.73;24.74;99904.53;10398085;28;20092;-57
2022/08/12 19:50:52;;;;;;;4.50;1.30;;;;;;;24.48;25.98;99902.22;10397878;28;20056;-59
2022/08/12 19:55:55;;;;;;;8.73;1.40;;;;;;;24.25;26.01;99899.59;10397416;28;20120;-60
2022/08/12 20:00:57;;;;;;;3.78;1.52;;;;;;;23.93;26.52;99899.81;10397804;28;20478;-60
2022/08/12 20:05:59;;;;;;;9.05;2.03;;;;;;;23.86;26.50;99905.00;10397941;28;20135;-58
2022/08/12 20:11:14;;;;;;;5.65;1.50;;;;;;;23.60;27.11;99912.53;10380904;28;20049;-58
2022/08/12 20:16:37;;;;;;;5.10;1.80;;;;;;;23.51;27.32;99916.25;10396701;28;20539;-58
2022/08/12 20:22:01;;;;;;;5.10;1.50;;;;;;;23.45;27.34;99930.31;10396011;28;20045;-58
2022/08/12 20:27:08;;;;;;;4.10;1.40;;;;;;;23.06;27.86;99926.75;10396564;28;20407;-58
2022/08/12 20:32:30;;;;;;;3.55;1.50;;;;;;;22.93;28.04;99927.28;10395841;28;20076;-58
2022/08/12 20:37:48;;;;;;;7.65;1.70;;;;;;;22.76;28.36;99930.16;10396010;28;20049;-58
2022/08/12 20:43:13;;;;;;;4.95;1.80;;;;;;;22.30;29.29;99932.50;10396267;28;20060;-58
2022/08/12 20:48:25;;;;;;;5.70;1.85;;;;;;;22.17;29.40;99939.31;10395229;28;20489;-58
2022/08/12 20:53:30;;;;;;;4.00;1.40;;;;;;;22.06;29.55;99943.13;10394956;28;20115;-58
2022/08/12 20:58:54;;;;;;;4.80;1.70;;;;;;;22.10;29.66;99944.47;10394877;28;20519;-58
2022/08/12 21:09:16;;;;;;;6.85;1.98;;;;;;;21.96;30.21;99954.91;10394927;28;20132;-57
2022/08/12 21:14:30;;;;;;;4.45;1.80;;;;;;;21.98;30.41;99956.41;10394378;28;20057;-58
2022/08/12 21:19:53;;;;;;;6.80;1.70;;;;;;;21.88;30.32;99953.88;10394532;28;20136;-58
2022/08/12 21:24:55;;;;;;;3.53;1.63;;;;;;;21.62;30.91;99962.97;10394068;28;20055;-58
2022/08/12 21:29:57;;;;;;;4.88;1.67;;;;;;;21.44;30.96;99964.88;10392851;28;20081;-58
2022/08/12 21:34:59;;;;;;;3.30;1.50;;;;;;;21.40;31.53;99963.53;10393044;28;20670;-58
2022/08/12 21:40:06;;;;;;;3.92;1.50;;;;;;;21.40;31.65;99969.69;10393498;28;20473;-58
2022/08/12 21:45:14;;;;;;;5.07;1.50;;;;;;;20.95;31.86;99975.22;10393516;28;20049;-58
2022/08/12 21:50:37;;;;;;;3.30;1.42;;;;;;;20.87;31.99;99980.50;10393095;28;20046;-57
2022/08/12 21:55:39;;;;;;;3.10;1.50;;;;;;;20.93;32.24;99987.00;10393305;28;20084;-58
2022/08/12 22:00:41;;;;;;;3.25;1.60;;;;;;;20.93;32.13;99982.53;10393280;28;20490;-57
2022/08/12 22:11:06;;;;;;;5.70;1.95;;;;;;;20.86;32.36;99989.47;10392739;28;20053;-58
2022/08/12 22:16:09;;;;;;;4.63;1.67;;;;;;;20.77;32.64;100001.03;10392449;28;20132;-58
2022/08/12 22:21:14;;;;;;;4.20;1.80;;;;;;;20.62;32.63;99991.13;10392207;28;20064;-58
2022/08/12 22:26:16;;;;;;;2.80;1.60;;;;;;;20.50;32.68;99998.44;10391145;28;20459;-57
2022/08/12 22:31:37;;;;;;;6.30;1.60;;;;;;;20.41;33.22;99994.06;10392282;28;20049;-58
2022/08/12 22:36:39;;;;;;;6.55;1.60;;;;;;;20.30;33.19;99996.94;10392000;28;20076;-58
2022/08/12 22:52:47;;;;;;;7.53;1.60;;;;;;;20.20;33.08;100002.31;10398606;28;20057;-58
2022/08/12 22:57:50;;;;;;;4.82;1.50;;;;;;;20.10;33.32;99992.75;10400520;28;20512;-58
2022/08/12 23:02:56;;;;;;;4.30;1.58;;;;;;;19.98;33.47;99992.16;10399799;28;20042;-57
2022/08/12 23:08:04;;;;;;;2.80;1.50;;;;;;;19.95;33.71;99994.28;10399510;28;20053;-57
2022/08/12 23:18:28;;;;;;;8.93;1.70;;;;;;;19.78;34.28;99997.69;10399686;28;20492;-57
2022/08/12 23:23:34;;;;;;;3.38;1.50;;;;;;;19.70;34.31;99994.94;10397923;28;20053;-60
2022/08/12 23:29:14;;;;;;;5.20;1.48;;;;;;;19.74;34.69;99998.97;10399327;28;20055;-59
2022/08/12 23:34:35;;;;;;;3.72;1.70;;;;;;;19.66;35.75;100005.03;10398671;28;20057;-60
2022/08/12 23:39:38;;;;;;;5.20;1.77;;;;;;;19.44;36.23;100000.91;10398389;28;20136;-60
2022/08/12 23:45:01;;;;;;;5.47;1.80;;;;;;;19.21;36.98;100006.75;10397629;28;20511;-60
2022/08/12 23:50:10;;;;;;;7.88;1.80;;;;;;;18.93;37.13;100008.44;10398312;28;20190;-60
2022/08/12 23:55:17;;;;;;;8.38;1.80;;;;;;;18.65;37.98;100015.47;10397306;28;20061;-59
